Time;durP1;ratioP1;P1;durP2;ratioP2;P2;SDS_P1;SDS_P2;PMS_P1;PMS_P2;Temp;Humidity;BMP_temperature;BMP_pressure;BME280_temperature;BME280_humidity;BME280_pressure;Samples;Min_cycle;Max_cycle;Signal;HPM_P1;HPM_P2
2022/06/07 00:02:28;;;;;;;4.72;3.20;;;;;;;;;;5051160;28;20312;-73
2022/06/07 00:04:54;;;;;;;7.05;3.05;;;;;;;;;;5051945;28;20040;-74
2022/06/07 00:07:20;;;;;;;5.68;3.40;;;;;;;;;;5050638;28;20033;-74
2022/06/07 00:09:46;;;;;;;5.07;3.08;;;;;;;;;;5051969;28;20495;-72
2022/06/07 00:12:12;;;;;;;6.18;3.17;;;;;;;;;;5051953;28;20025;-73
2022/06/07 00:14:38;;;;;;;5.35;3.17;;;;;;;;;;5051643;28;20043;-74
2022/06/07 00:17:05;;;;;;;4.35;3.10;;;;;;;;;;5051931;28;20025;-73
2022/06/07 00:19:34;;;;;;;9.25;3.40;;;;;;;;;;5052223;28;20025;-73
2022/06/07 00:22:00;;;;;;;4.80;3.22;;;;;;;;;;5051843;28;20036;-72
2022/06/07 00:24:26;;;;;;;4.47;3.40;;;;;;;;;;5051617;28;20021;-73
2022/06/07 00:26:52;;;;;;;9.13;3.70;;;;;;;;;;5051535;28;20036;-73
2022/06/07 00:29:18;;;;;;;5.85;3.50;;;;;;;;;;5051515;28;20036;-72
2022/06/07 00:31:44;;;;;;;6.95;3.50;;;;;;;;;;5051432;28;20497;-71
2022/06/07 00:34:10;;;;;;;4.63;3.30;;;;;;;;;;5051155;28;20056;-73
2022/06/07 00:36:36;;;;;;;5.60;3.40;;;;;;;;;;5051478;28;20025;-71
2022/06/07 00:39:03;;;;;;;6.70;3.80;;;;;;;;;;5051480;28;20025;-72
2022/06/07 00:41:28;;;;;;;6.00;3.65;;;;;;;;;;5051419;28;20025;-73
2022/06/07 00:44:20;;;;;;;4.63;3.20;;;;;;;;;;5051144;28;20043;-73
2022/06/07 00:46:47;;;;;;;5.68;3.47;;;;;;;;;;5051525;28;20055;-73
2022/06/07 00:49:15;;;;;;;5.03;3.35;;;;;;;;;;5051486;28;20025;-72
2022/06/07 00:51:41;;;;;;;6.65;3.40;;;;;;;;;;5050931;28;20455;-73
2022/06/07 00:54:06;;;;;;;6.55;3.38;;;;;;;;;;5050865;28;20028;-70
2022/06/07 00:56:32;;;;;;;6.35;3.40;;;;;;;;;;5051125;28;20408;-74
2022/06/07 00:59:00;;;;;;;5.63;3.10;;;;;;;;;;5051227;28;20480;-73
2022/06/07 01:01:30;;;;;;;4.93;3.10;;;;;;;;;;5051006;28;20036;-73
2022/06/07 01:03:56;;;;;;;5.18;2.90;;;;;;;;;;5050591;28;20108;-71
2022/06/07 01:11:49;;;;;;;4.85;2.78;;;;;;;;;;5051025;28;20039;-72
2022/06/07 01:14:15;;;;;;;5.15;2.95;;;;;;;;;;5050297;28;20115;-70
2022/06/07 01:16:41;;;;;;;4.30;2.88;;;;;;;;;;5050709;28;20020;-73
2022/06/07 01:19:06;;;;;;;5.68;2.90;;;;;;;;;;5050629;28;20473;-70
2022/06/07 01:21:33;;;;;;;5.80;3.10;;;;;;;;;;5050337;28;20397;-71
2022/06/07 01:23:59;;;;;;;4.30;2.83;;;;;;;;;;5050080;28;20052;-68
2022/06/07 01:26:24;;;;;;;5.47;3.20;;;;;;;;;;5050311;28;20029;-71
2022/06/07 01:28:50;;;;;;;4.53;3.10;;;;;;;;;;5050866;28;20021;-70
2022/06/07 01:31:15;;;;;;;4.78;2.90;;;;;;;;;;5050563;28;20021;-69
2022/06/07 01:33:41;;;;;;;4.70;3.03;;;;;;;;;;5050141;28;20108;-71
2022/06/07 01:36:11;;;;;;;9.80;3.20;;;;;;;;;;5050173;28;20055;-72
2022/06/07 01:38:38;;;;;;;4.70;2.70;;;;;;;;;;5050140;28;20057;-74
2022/06/07 01:43:49;;;;;;;5.00;3.10;;;;;;;;;;5050277;28;20039;-73
2022/06/07 01:46:15;;;;;;;5.57;2.83;;;;;;;;;;5050335;28;20112;-73
2022/06/07 01:48:40;;;;;;;5.78;3.00;;;;;;;;;;5050340;28;20029;-70
2022/06/07 01:51:08;;;;;;;4.72;3.00;;;;;;;;;;5050076;28;20083;-74
2022/06/07 01:53:35;;;;;;;7.40;2.80;;;;;;;;;;5050158;28;20064;-72
2022/06/07 01:56:07;;;;;;;6.00;3.53;;;;;;;;;;5050032;28;20056;-74
2022/06/07 01:58:32;;;;;;;5.55;2.92;;;;;;;;;;5049900;28;20071;-73
2022/06/07 02:00:58;;;;;;;7.72;3.20;;;;;;;;;;5049777;28;20021;-71
2022/06/07 02:03:24;;;;;;;6.05;3.10;;;;;;;;;;5050078;28;20021;-73
2022/06/07 02:06:01;;;;;;;5.85;3.28;;;;;;;;;;5049950;28;20098;-72
2022/06/07 02:08:27;;;;;;;4.68;2.90;;;;;;;;;;5049968;28;20025;-74
2022/06/07 02:10:53;;;;;;;5.30;3.00;;;;;;;;;;5049880;28;20056;-73
2022/06/07 02:13:20;;;;;;;5.10;2.72;;;;;;;;;;5048362;28;20570;-73
2022/06/07 02:15:46;;;;;;;4.63;2.80;;;;;;;;;;5049558;28;20036;-72
2022/06/07 02:18:13;;;;;;;4.40;3.20;;;;;;;;;;5049697;28;20031;-73
2022/06/07 02:20:38;;;;;;;5.70;2.78;;;;;;;;;;5049682;28;20473;-74
2022/06/07 02:23:05;;;;;;;5.78;3.05;;;;;;;;;;5049704;28;20041;-74
2022/06/07 02:25:37;;;;;;;5.78;3.10;;;;;;;;;;5051006;28;20051;-73
2022/06/07 02:28:04;;;;;;;5.07;2.70;;;;;;;;;;5053846;28;20048;-73
2022/06/07 02:30:29;;;;;;;3.83;2.75;;;;;;;;;;5053837;28;20129;-71
2022/06/07 02:32:55;;;;;;;6.57;2.80;;;;;;;;;;5053643;28;20108;-72
2022/06/07 02:35:20;;;;;;;6.38;2.78;;;;;;;;;;5053526;28;20162;-74
2022/06/07 02:37:46;;;;;;;5.53;2.63;;;;;;;;;;5053626;28;20078;-74
2022/06/07 02:40:11;;;;;;;6.55;3.00;;;;;;;;;;5054074;28;20037;-72
2022/06/07 02:42:38;;;;;;;6.82;2.60;;;;;;;;;;5053745;28;20024;-72
2022/06/07 02:45:05;;;;;;;4.00;2.60;;;;;;;;;;5053481;28;20025;-73
2022/06/07 02:47:30;;;;;;;7.07;2.80;;;;;;;;;;5053662;28;20021;-74
2022/06/07 02:49:57;;;;;;;5.32;2.55;;;;;;;;;;5053477;28;20027;-70
2022/06/07 02:52:22;;;;;;;4.70;2.78;;;;;;;;;;5053249;28;20029;-73
2022/06/07 02:54:48;;;;;;;6.25;2.90;;;;;;;;;;5053332;28;20032;-72
2022/06/07 02:57:15;;;;;;;5.60;2.67;;;;;;;;;;5053458;28;20179;-73
2022/06/07 02:59:40;;;;;;;6.38;2.90;;;;;;;;;;5053225;28;20369;-71
2022/06/07 03:02:06;;;;;;;5.05;2.85;;;;;;;;;;5053127;28;20534;-74
2022/06/07 03:04:31;;;;;;;6.30;2.70;;;;;;;;;;5053026;28;20549;-74
2022/06/07 03:06:57;;;;;;;5.85;3.30;;;;;;;;;;5052950;28;20053;-73
2022/06/07 03:09:22;;;;;;;5.28;2.90;;;;;;;;;;5053167;28;20060;-73
2022/06/07 03:11:48;;;;;;;5.07;2.78;;;;;;;;;;5053040;28;20457;-74
2022/06/07 03:14:13;;;;;;;4.53;3.10;;;;;;;;;;5052768;28;20098;-73
2022/06/07 03:16:38;;;;;;;5.13;2.83;;;;;;;;;;5053280;28;20380;-74
2022/06/07 03:19:04;;;;;;;4.30;2.72;;;;;;;;;;5053020;28;20021;-73
2022/06/07 03:21:30;;;;;;;5.97;2.72;;;;;;;;;;5053021;28;20028;-74
2022/06/07 03:23:55;;;;;;;4.80;2.67;;;;;;;;;;5052421;28;20124;-73
2022/06/07 03:26:21;;;;;;;6.35;2.80;;;;;;;;;;5052404;28;20429;-74
2022/06/07 03:28:47;;;;;;;5.88;2.80;;;;;;;;;;5052705;28;20039;-71
2022/06/07 03:31:16;;;;;;;7.35;3.00;;;;;;;;;;5052622;28;20104;-72
2022/06/07 03:33:43;;;;;;;4.05;2.78;;;;;;;;;;5052692;28;20492;-73
2022/06/07 03:36:11;;;;;;;5.10;3.00;;;;;;;;;;5051742;28;20037;-72
2022/06/07 03:38:37;;;;;;;4.15;2.80;;;;;;;;;;5052124;28;20384;-73
2022/06/07 03:41:02;;;;;;;4.25;2.80;;;;;;;;;;5052424;28;20500;-73
2022/06/07 03:43:28;;;;;;;5.75;3.00;;;;;;;;;;5052362;28;20056;-73
2022/06/07 03:45:54;;;;;;;4.20;2.88;;;;;;;;;;5052064;28;20098;-73
2022/06/07 03:48:19;;;;;;;5.13;3.03;;;;;;;;;;5050971;28;20033;-73
2022/06/07 03:50:45;;;;;;;6.00;2.80;;;;;;;;;;5052180;28;20029;-73
2022/06/07 03:53:11;;;;;;;3.67;2.58;;;;;;;;;;5052240;28;20039;-73
2022/06/07 03:55:44;;;;;;;4.50;2.85;;;;;;;;;;5052093;28;20035;-73
2022/06/07 03:58:10;;;;;;;4.50;2.75;;;;;;;;;;5052409;28;20021;-73
2022/06/07 04:00:36;;;;;;;9.88;3.10;;;;;;;;;;5052040;28;20051;-73
2022/06/07 04:03:02;;;;;;;6.88;2.90;;;;;;;;;;5052264;28;20082;-73
2022/06/07 04:05:27;;;;;;;4.93;2.90;;;;;;;;;;5051938;28;20408;-73
2022/06/07 04:08:11;;;;;;;6.28;2.75;;;;;;;;;;5051934;28;20013;-72
2022/06/07 04:10:53;;;;;;;4.78;2.90;;;;;;;;;;5052312;28;20021;-70
2022/06/07 04:13:21;;;;;;;6.80;2.70;;;;;;;;;;5051876;28;20556;-71
2022/06/07 04:15:47;;;;;;;5.45;2.42;;;;;;;;;;5051663;28;20067;-70
2022/06/07 04:18:13;;;;;;;4.32;2.60;;;;;;;;;;5051759;28;20049;-74
2022/06/07 04:20:39;;;;;;;5.07;2.60;;;;;;;;;;5051519;28;20282;-72
2022/06/07 04:23:05;;;;;;;10.68;2.50;;;;;;;;;;5051516;28;20064;-70
2022/06/07 04:25:36;;;;;;;5.22;2.80;;;;;;;;;;5051599;28;20435;-69
2022/06/07 04:28:02;;;;;;;4.10;2.50;;;;;;;;;;5051587;28;20029;-67
2022/06/07 04:30:28;;;;;;;5.22;2.47;;;;;;;;;;5051570;28;20063;-71
2022/06/07 04:32:54;;;;;;;4.82;2.58;;;;;;;;;;5051602;28;20028;-74
2022/06/07 04:35:20;;;;;;;6.82;2.72;;;;;;;;;;5051402;28;20620;-72
2022/06/07 04:37:46;;;;;;;4.15;2.35;;;;;;;;;;5051350;28;20103;-72
2022/06/07 04:40:13;;;;;;;3.97;2.25;;;;;;;;;;5051308;28;20029;-72
2022/06/07 04:42:39;;;;;;;5.00;2.30;;;;;;;;;;5051528;28;20025;-71
2022/06/07 04:45:06;;;;;;;4.18;2.40;;;;;;;;;;5051154;28;20103;-73
2022/06/07 04:47:32;;;;;;;3.58;2.40;;;;;;;;;;5050920;28;20024;-71
2022/06/07 04:49:58;;;;;;;3.72;2.50;;;;;;;;;;5051044;28;20535;-73
2022/06/07 04:52:23;;;;;;;3.42;2.30;;;;;;;;;;5050955;28;20048;-73
2022/06/07 04:54:49;;;;;;;5.72;2.47;;;;;;;;;;5050701;28;20071;-72
2022/06/07 04:57:14;;;;;;;3.38;2.20;;;;;;;;;;5050901;28;20025;-72
2022/06/07 04:59:40;;;;;;;7.45;2.30;;;;;;;;;;5051237;28;20063;-73
2022/06/07 05:02:05;;;;;;;6.13;2.08;;;;;;;;;;5051026;28;20398;-69
2022/06/07 05:04:31;;;;;;;4.20;2.10;;;;;;;;;;5050967;28;20029;-69
2022/06/07 05:06:56;;;;;;;3.83;2.10;;;;;;;;;;5050688;28;20492;-72
2022/06/07 05:09:24;;;;;;;4.47;2.10;;;;;;;;;;5050888;28;20401;-70
2022/06/07 05:11:51;;;;;;;5.72;2.40;;;;;;;;;;5050835;28;20047;-69
2022/06/07 05:14:17;;;;;;;3.53;2.13;;;;;;;;;;5050870;28;20025;-69
2022/06/07 05:16:43;;;;;;;3.92;1.98;;;;;;;;;;5050405;28;20016;-73
2022/06/07 05:19:10;;;;;;;5.55;1.98;;;;;;;;;;5050780;28;20079;-69
2022/06/07 05:21:37;;;;;;;4.45;2.00;;;;;;;;;;5050780;28;20616;-70
2022/06/07 05:24:03;;;;;;;4.68;1.92;;;;;;;;;;5050420;28;20393;-71
2022/06/07 05:26:34;;;;;;;4.20;2.00;;;;;;;;;;5050313;28;20029;-73
2022/06/07 05:29:00;;;;;;;3.30;1.90;;;;;;;;;;5050794;28;20032;-73
2022/06/07 05:31:25;;;;;;;2.83;1.90;;;;;;;;;;5050407;28;20036;-71
2022/06/07 05:33:51;;;;;;;6.15;1.83;;;;;;;;;;5050488;28;20064;-68
2022/06/07 05:36:18;;;;;;;3.20;1.83;;;;;;;;;;5050327;28;20025;-70
2022/06/07 05:38:43;;;;;;;9.00;2.20;;;;;;;;;;5050747;28;20449;-69
2022/06/07 05:41:24;;;;;;;3.20;1.73;;;;;;;;;;5049060;28;20116;-69
2022/06/07 05:43:50;;;;;;;3.60;1.92;;;;;;;;;;5050480;28;20221;-72
2022/06/07 05:46:15;;;;;;;4.18;1.67;;;;;;;;;;5050038;28;20059;-72
2022/06/07 05:48:41;;;;;;;3.65;1.58;;;;;;;;;;5050024;28;20032;-73
2022/06/07 05:51:07;;;;;;;3.60;1.77;;;;;;;;;;5050026;28;20380;-72
2022/06/07 05:53:32;;;;;;;3.00;1.60;;;;;;;;;;5049975;28;20429;-73
2022/06/07 05:56:07;;;;;;;4.47;1.60;;;;;;;;;;5049875;28;20043;-74
2022/06/07 05:58:33;;;;;;;3.35;1.65;;;;;;;;;;5050415;28;20032;-72
2022/06/07 06:00:58;;;;;;;4.28;1.60;;;;;;;;;;5049442;28;20021;-73
2022/06/07 06:03:24;;;;;;;4.25;1.50;;;;;;;;;;5050197;28;20430;-72
2022/06/07 06:05:49;;;;;;;4.43;1.80;;;;;;;;;;5049559;28;20454;-72
2022/06/07 06:11:14;;;;;;;3.50;1.50;;;;;;;;;;5049901;28;20074;-72
2022/06/07 06:13:40;;;;;;;6.32;1.75;;;;;;;;;;5049910;28;20086;-71
2022/06/07 06:16:10;;;;;;;4.45;1.60;;;;;;;;;;5049769;28;20025;-74
2022/06/07 06:18:37;;;;;;;4.28;1.60;;;;;;;;;;5050105;28;20032;-73
2022/06/07 06:21:02;;;;;;;5.40;1.55;;;;;;;;;;5049510;28;20053;-74
2022/06/07 06:23:28;;;;;;;4.50;1.70;;;;;;;;;;5049549;28;20087;-73
2022/06/07 06:25:54;;;;;;;3.72;1.80;;;;;;;;;;5049651;28;20093;-73
2022/06/07 06:28:19;;;;;;;5.82;1.80;;;;;;;;;;5049871;28;20021;-74
2022/06/07 06:30:46;;;;;;;3.30;1.77;;;;;;;;;;5050140;28;20500;-71
2022/06/07 06:33:15;;;;;;;3.95;1.70;;;;;;;;;;5049611;28;20075;-72
2022/06/07 06:35:51;;;;;;;6.00;1.80;;;;;;;;;;5049113;28;20393;-73
2022/06/07 06:38:18;;;;;;;3.72;1.60;;;;;;;;;;5049706;28;20115;-73
2022/06/07 06:40:45;;;;;;;4.57;1.58;;;;;;;;;;5049389;28;20021;-74
2022/06/07 06:43:12;;;;;;;2.65;1.40;;;;;;;;;;5049499;28;20021;-74
2022/06/07 06:45:38;;;;;;;4.32;1.48;;;;;;;;;;5049539;28;20369;-73
2022/06/07 06:48:04;;;;;;;4.05;1.63;;;;;;;;;;5049568;28;20040;-73
2022/06/07 06:50:29;;;;;;;4.10;1.58;;;;;;;;;;5049535;28;20252;-74
2022/06/07 06:52:55;;;;;;;4.38;1.60;;;;;;;;;;5049826;28;20090;-74
2022/06/07 06:55:21;;;;;;;3.28;1.60;;;;;;;;;;5049227;28;20285;-75
2022/06/07 06:57:48;;;;;;;3.38;1.67;;;;;;;;;;5049206;28;20029;-72
2022/06/07 07:00:15;;;;;;;3.60;1.40;;;;;;;;;;5049383;28;20037;-74
2022/06/07 07:02:41;;;;;;;1.90;1.20;;;;;;;;;;5049531;28;20038;-73
2022/06/07 07:05:07;;;;;;;4.60;1.50;;;;;;;;;;5049356;28;20032;-72
2022/06/07 07:07:32;;;;;;;3.58;1.40;;;;;;;;;;5047744;28;20090;-73
2022/06/07 07:09:58;;;;;;;3.15;1.50;;;;;;;;;;5049501;28;20029;-73
2022/06/07 07:12:23;;;;;;;7.55;1.63;;;;;;;;;;5051584;28;20048;-72
2022/06/07 07:14:49;;;;;;;5.50;1.40;;;;;;;;;;5052956;28;20120;-74
2022/06/07 07:17:15;;;;;;;2.35;1.30;;;;;;;;;;5052962;28;20029;-73
2022/06/07 07:19:40;;;;;;;2.65;1.42;;;;;;;;;;5053030;28;20025;-73
2022/06/07 07:22:06;;;;;;;3.40;1.63;;;;;;;;;;5052619;28;20029;-74
2022/06/07 07:24:32;;;;;;;4.93;1.40;;;;;;;;;;5053023;28;20316;-72
2022/06/07 07:26:58;;;;;;;3.40;1.33;;;;;;;;;;5052916;28;20068;-74
2022/06/07 07:29:24;;;;;;;4.78;1.50;;;;;;;;;;5052606;28;20094;-70
2022/06/07 07:31:50;;;;;;;2.03;1.15;;;;;;;;;;5052995;28;20381;-73
2022/06/07 07:34:17;;;;;;;3.45;1.25;;;;;;;;;;5052405;28;20029;-74
2022/06/07 07:36:53;;;;;;;3.22;1.40;;;;;;;;;;5052846;28;20068;-75
2022/06/07 07:39:19;;;;;;;4.07;1.33;;;;;;;;;;5052600;28;20021;-74
2022/06/07 07:41:48;;;;;;;1.45;1.20;;;;;;;;;;5052951;28;20028;-74
2022/06/07 07:44:16;;;;;;;6.43;1.60;;;;;;;;;;5052636;28;20534;-73
2022/06/07 07:46:43;;;;;;;3.90;1.50;;;;;;;;;;5052397;28;20025;-75
2022/06/07 07:49:12;;;;;;;2.28;1.25;;;;;;;;;;5052318;28;20477;-74
2022/06/07 07:51:40;;;;;;;2.47;1.48;;;;;;;;;;5052099;28;20049;-70
2022/06/07 07:54:09;;;;;;;2.45;1.48;;;;;;;;;;5052158;28;20033;-68
2022/06/07 07:56:35;;;;;;;2.67;1.40;;;;;;;;;;5052237;28;20029;-73
2022/06/07 07:59:01;;;;;;;4.20;1.33;;;;;;;;;;5052397;28;20082;-71
2022/06/07 08:01:28;;;;;;;2.38;1.30;;;;;;;;;;5052218;28;20108;-72
2022/06/07 08:03:57;;;;;;;2.40;1.30;;;;;;;;;;5052436;28;20033;-70
2022/06/07 08:06:24;;;;;;;3.10;1.40;;;;;;;;;;5051841;28;20021;-71
2022/06/07 08:08:52;;;;;;;4.07;1.70;;;;;;;;;;5051918;28;20053;-73
2022/06/07 08:11:20;;;;;;;3.78;1.60;;;;;;;;;;5051895;28;20528;-71
2022/06/07 08:13:46;;;;;;;3.25;1.50;;;;;;;;;;5052181;28;20029;-73
2022/06/07 08:16:12;;;;;;;2.50;1.42;;;;;;;;;;5051991;28;20388;-71
2022/06/07 08:18:39;;;;;;;2.90;1.45;;;;;;;;;;5051962;28;20063;-71
2022/06/07 08:21:08;;;;;;;3.95;1.40;;;;;;;;;;5051650;28;20476;-72
2022/06/07 08:23:33;;;;;;;2.78;1.50;;;;;;;;;;5050818;28;20547;-73
2022/06/07 08:26:01;;;;;;;9.57;5.75;;;;;;;;;;5051359;28;20060;-73
2022/06/07 08:28:26;;;;;;;4.20;1.90;;;;;;;;;;5051421;28;20037;-73
2022/06/07 08:30:52;;;;;;;3.85;1.65;;;;;;;;;;5051893;28;20037;-72
2022/06/07 08:38:53;;;;;;;3.75;1.80;;;;;;;;;;5051607;28;20514;-69
2022/06/07 08:41:40;;;;;;;3.33;1.60;;;;;;;;;;5051290;28;20480;-67
2022/06/07 08:44:19;;;;;;;4.07;1.70;;;;;;;;;;5051449;28;20115;-73
2022/06/07 08:46:44;;;;;;;2.83;1.52;;;;;;;;;;5051116;28;20520;-72
2022/06/07 08:49:12;;;;;;;3.55;1.73;;;;;;;;;;5051236;28;20063;-73
2022/06/07 08:51:44;;;;;;;3.58;1.63;;;;;;;;;;5051366;28;20041;-73
2022/06/07 08:54:18;;;;;;;3.13;1.70;;;;;;;;;;5051202;28;20040;-73
2022/06/07 08:56:44;;;;;;;4.57;1.70;;;;;;;;;;5050753;28;20423;-72
2022/06/07 08:59:15;;;;;;;6.57;2.00;;;;;;;;;;5050881;28;20263;-73
2022/06/07 09:01:53;;;;;;;5.75;1.60;;;;;;;;;;5050775;28;20508;-73
2022/06/07 09:04:27;;;;;;;4.13;1.60;;;;;;;;;;5050978;28;20507;-73
2022/06/07 09:07:00;;;;;;;3.03;1.70;;;;;;;;;;5050642;28;20512;-69
2022/06/07 09:12:18;;;;;;;5.65;1.70;;;;;;;;;;5050761;28;20063;-73
2022/06/07 09:15:04;;;;;;;;;;;;;;;;;;5051056;28;20032;-70
2022/06/07 09:17:30;;;;;;;4.85;1.60;;;;;;;;;;5050345;28;20348;-74
2022/06/07 09:19:56;;;;;;;4.80;1.77;;;;;;;;;;5050598;28;20090;-71
2022/06/07 09:22:29;;;;;;;2.95;1.42;;;;;;;;;;5050102;28;20049;-73
2022/06/07 09:25:03;;;;;;;4.35;1.73;;;;;;;;;;5050545;28;20033;-71
2022/06/07 09:27:33;;;;;;;4.72;1.67;;;;;;;;;;5050062;28;20472;-73
2022/06/07 09:30:08;;;;;;;5.57;1.58;;;;;;;;;;5050579;28;20089;-73
2022/06/07 09:32:38;;;;;;;2.80;1.45;;;;;;;;;;5050602;28;20086;-73
2022/06/07 09:35:18;;;;;;;3.40;1.60;;;;;;;;;;5050079;28;20488;-72
2022/06/07 09:38:20;;;;;;;5.20;1.77;;;;;;;;;;5050049;28;20025;-73
2022/06/07 09:41:36;;;;;;;3.80;1.50;;;;;;;;;;5042806;28;20503;-72
2022/06/07 09:43:59;;;;;;;3.63;1.70;;;;;;;;;;5050263;28;20064;-73
2022/06/07 09:46:27;;;;;;;4.13;1.80;;;;;;;;;;5050037;28;20028;-74
2022/06/07 09:48:53;;;;;;;3.72;1.55;;;;;;;;;;5050311;28;20087;-73
2022/06/07 09:51:27;;;;;;;4.93;1.92;;;;;;;;;;5049961;28;20025;-74
2022/06/07 09:54:17;;;;;;;4.57;1.60;;;;;;;;;;5050311;28;20028;-74
2022/06/07 09:56:45;;;;;;;6.50;1.57;;;;;;;;;;5050053;28;20029;-73
2022/06/07 09:59:19;;;;;;;3.08;1.50;;;;;;;;;;5050286;28;20021;-73
2022/06/07 10:01:55;;;;;;;4.85;1.80;;;;;;;;;;5050102;28;20630;-72
2022/06/07 10:04:34;;;;;;;3.25;1.40;;;;;;;;;;5049872;28;20112;-73
2022/06/07 10:07:06;;;;;;;4.82;1.60;;;;;;;;;;5049664;28;20021;-72
2022/06/07 10:09:54;;;;;;;4.72;1.55;;;;;;;;;;5049768;28;20033;-73
2022/06/07 10:12:38;;;;;;;4.70;2.28;;;;;;;;;;5049631;28;20040;-74
2022/06/07 10:15:33;;;;;;;6.20;2.20;;;;;;;;;;5049557;28;20558;-73
2022/06/07 10:18:25;;;;;;;5.47;1.98;;;;;;;;;;5045872;28;20123;-72
2022/06/07 10:21:08;;;;;;;3.30;1.55;;;;;;;;;;5044190;28;20279;-72
2022/06/07 10:24:01;;;;;;;4.75;1.58;;;;;;;;;;5049586;28;20044;-72
2022/06/07 10:27:13;;;;;;;3.95;1.65;;;;;;;;;;5049635;28;20029;-73
2022/06/07 10:29:41;;;;;;;6.97;1.73;;;;;;;;;;5049239;28;20037;-74
2022/06/07 10:32:51;;;;;;;4.60;1.67;;;;;;;;;;5049950;28;20025;-73
2022/06/07 10:35:55;;;;;;;6.40;1.60;;;;;;;;;;5029797;28;20459;-72
2022/06/07 10:38:40;;;;;;;7.38;1.75;;;;;;;;;;5049456;28;20362;-74
2022/06/07 10:41:35;;;;;;;5.05;1.40;;;;;;;;;;5049547;28;20036;-73
2022/06/07 10:44:14;;;;;;;3.60;1.42;;;;;;;;;;5043943;28;20037;-74
2022/06/07 10:46:41;;;;;;;5.15;1.67;;;;;;;;;;5051005;28;20451;-74
2022/06/07 10:49:13;;;;;;;5.57;2.00;;;;;;;;;;5053804;28;20031;-73
2022/06/07 10:54:43;;;;;;;6.00;1.63;;;;;;;;;;5053797;28;20090;-74
2022/06/07 10:57:19;;;;;;;6.70;1.85;;;;;;;;;;5053258;28;20032;-73
2022/06/07 10:59:45;;;;;;;3.58;1.65;;;;;;;;;;5053432;28;20029;-74
2022/06/07 11:02:26;;;;;;;6.68;1.90;;;;;;;;;;5053090;28;20484;-74
2022/06/07 11:10:38;;;;;;;8.90;1.85;;;;;;;;;;5053201;28;20112;-72
2022/06/07 11:13:16;;;;;;;4.68;1.70;;;;;;;;;;5053136;28;20119;-73
2022/06/07 11:15:58;;;;;;;6.85;1.67;;;;;;;;;;5053102;28;20025;-74
2022/06/07 11:18:26;;;;;;;6.93;1.70;;;;;;;;;;5053002;28;20110;-73
2022/06/07 11:21:00;;;;;;;4.80;1.52;;;;;;;;;;5052851;28;20036;-74
2022/06/07 11:23:31;;;;;;;4.38;1.60;;;;;;;;;;5052491;28;20045;-73
2022/06/07 11:26:04;;;;;;;4.28;1.58;;;;;;;;;;5053262;28;20040;-73
2022/06/07 11:28:39;;;;;;;7.88;1.90;;;;;;;;;;5052861;28;20081;-73
2022/06/07 11:31:23;;;;;;;7.90;1.80;;;;;;;;;;5052912;28;20040;-73
2022/06/07 11:33:51;;;;;;;7.95;1.70;;;;;;;;;;5052561;28;20484;-70
2022/06/07 11:36:20;;;;;;;5.50;1.55;;;;;;;;;;5052513;28;20548;-67
2022/06/07 11:38:57;;;;;;;6.68;1.70;;;;;;;;;;5052405;28;20051;-72
2022/06/07 11:41:37;;;;;;;4.18;1.67;;;;;;;;;;5052675;28;20048;-74
2022/06/07 11:44:11;;;;;;;5.55;2.08;;;;;;;;;;5052721;28;20020;-74
2022/06/07 11:46:51;;;;;;;3.20;1.52;;;;;;;;;;5052577;28;20476;-72
2022/06/07 11:51:57;;;;;;;6.40;1.70;;;;;;;;;;5052360;28;20033;-72
2022/06/07 11:54:29;;;;;;;4.18;1.58;;;;;;;;;;5052065;28;20485;-74
2022/06/07 11:57:00;;;;;;;5.22;1.58;;;;;;;;;;5052150;28;20504;-73
2022/06/07 11:59:44;;;;;;;4.72;1.63;;;;;;;;;;5051303;28;20056;-74
2022/06/07 12:02:16;;;;;;;4.40;1.58;;;;;;;;;;5051983;28;20147;-72
2022/06/07 12:04:41;;;;;;;5.35;1.65;;;;;;;;;;5052116;28;20111;-72
2022/06/07 12:07:16;;;;;;;5.22;1.60;;;;;;;;;;5051952;28;20104;-71
2022/06/07 12:09:48;;;;;;;4.55;1.70;;;;;;;;;;5052162;28;20075;-73
2022/06/07 12:12:31;;;;;;;4.28;1.70;;;;;;;;;;5051765;28;20647;-74
2022/06/07 12:15:09;;;;;;;5.93;1.70;;;;;;;;;;5051676;28;20131;-72
2022/06/07 12:17:34;;;;;;;4.72;1.60;;;;;;;;;;5051473;28;20029;-74
2022/06/07 12:20:00;;;;;;;4.85;1.80;;;;;;;;;;5051748;28;20029;-73
2022/06/07 12:22:39;;;;;;;4.22;1.70;;;;;;;;;;5051479;28;20068;-73
2022/06/07 12:25:20;;;;;;;4.38;1.55;;;;;;;;;;5051782;28;20025;-73
2022/06/07 12:27:51;;;;;;;4.78;1.77;;;;;;;;;;5051459;28;20278;-73
2022/06/07 12:30:33;;;;;;;4.90;1.60;;;;;;;;;;5051305;28;20400;-73
2022/06/07 12:33:21;;;;;;;6.30;1.70;;;;;;;;;;5051306;28;20021;-73
2022/06/07 12:35:57;;;;;;;5.00;1.63;;;;;;;;;;5051298;28;20061;-73
2022/06/07 12:38:23;;;;;;;5.40;1.58;;;;;;;;;;5051342;28;20047;-73
2022/06/07 12:41:04;;;;;;;3.97;1.60;;;;;;;;;;5051374;28;20025;-73
2022/06/07 12:43:34;;;;;;;5.07;1.58;;;;;;;;;;5051277;28;20365;-74
2022/06/07 12:46:17;;;;;;;7.60;2.20;;;;;;;;;;5051301;28;20033;-72
2022/06/07 12:48:42;;;;;;;5.57;1.70;;;;;;;;;;5050886;28;20083;-72
2022/06/07 12:51:34;;;;;;;5.10;1.80;;;;;;;;;;5050880;28;20024;-74
2022/06/07 12:54:14;;;;;;;6.03;1.60;;;;;;;;;;5051321;28;20021;-72
2022/06/07 12:56:42;;;;;;;7.03;1.50;;;;;;;;;;5051292;28;20489;-73
2022/06/07 12:59:22;;;;;;;8.55;1.65;;;;;;;;;;5050897;28;20491;-72
2022/06/07 13:01:50;;;;;;;3.38;1.40;;;;;;;;;;5051019;28;20390;-73
2022/06/07 13:04:15;;;;;;;7.82;1.70;;;;;;;;;;5050880;28;20119;-73
2022/06/07 13:07:16;;;;;;;5.68;1.58;;;;;;;;;;5050572;28;20025;-74
2022/06/07 13:09:45;;;;;;;6.45;1.70;;;;;;;;;;5048843;28;20370;-73
2022/06/07 13:12:19;;;;;;;6.38;1.60;;;;;;;;;;5050733;28;20029;-73
2022/06/07 13:14:45;;;;;;;4.57;1.60;;;;;;;;;;5050765;28;20392;-73
2022/06/07 13:17:32;;;;;;;6.22;1.77;;;;;;;;;;5050724;28;20021;-73
2022/06/07 13:20:00;;;;;;;4.75;1.60;;;;;;;;;;5050054;28;20033;-73
2022/06/07 13:22:29;;;;;;;9.60;2.08;;;;;;;;;;5050126;28;20032;-74
2022/06/07 13:25:11;;;;;;;4.28;1.60;;;;;;;;;;5050283;28;20064;-74
2022/06/07 13:27:44;;;;;;;4.28;1.50;;;;;;;;;;5050547;28;20039;-72
2022/06/07 13:30:21;;;;;;;4.90;1.77;;;;;;;;;;5050436;28;20021;-73
2022/06/07 13:32:58;;;;;;;4.78;1.58;;;;;;;;;;5050570;28;20025;-74
2022/06/07 13:35:30;;;;;;;6.45;1.80;;;;;;;;;;5050374;28;20523;-73
2022/06/07 13:38:16;;;;;;;4.43;1.52;;;;;;;;;;5050430;28;20029;-71
2022/06/07 13:40:41;;;;;;;5.43;1.63;;;;;;;;;;5048606;28;20436;-72
2022/06/07 13:43:24;;;;;;;5.85;1.60;;;;;;;;;;5050263;28;20033;-72
2022/06/07 13:45:52;;;;;;;11.93;2.00;;;;;;;;;;5050231;28;20029;-73
2022/06/07 13:48:21;;;;;;;7.57;1.48;;;;;;;;;;5049914;28;20396;-72
2022/06/07 13:54:00;;;;;;;4.80;1.40;;;;;;;;;;5049972;28;20459;-74
2022/06/07 13:56:26;;;;;;;7.05;1.73;;;;;;;;;;5049988;28;20036;-73
2022/06/07 13:58:54;;;;;;;3.95;1.58;;;;;;;;;;5049683;28;20029;-72
2022/06/07 14:01:33;;;;;;;5.53;1.50;;;;;;;;;;5049878;28;20240;-73
2022/06/07 14:04:03;;;;;;;12.80;4.90;;;;;;;;;;5049960;28;20032;-74
2022/06/07 14:06:33;;;;;;;7.88;2.00;;;;;;;;;;5049671;28;20447;-73
2022/06/07 14:09:02;;;;;;;5.03;1.58;;;;;;;;;;5049755;28;20075;-73
2022/06/07 14:11:27;;;;;;;5.00;1.70;;;;;;;;;;5049912;28;20134;-72
2022/06/07 14:13:53;;;;;;;2.65;1.52;;;;;;;;;;5049642;28;20128;-72
2022/06/07 14:16:30;;;;;;;5.13;1.45;;;;;;;;;;5049570;28;20455;-73
2022/06/07 14:18:57;;;;;;;4.32;1.55;;;;;;;;;;5049431;28;20096;-72
2022/06/07 14:21:23;;;;;;;5.53;1.90;;;;;;;;;;5048946;28;20075;-73
2022/06/07 14:23:49;;;;;;;6.93;1.70;;;;;;;;;;5049979;28;20094;-73
2022/06/07 14:26:14;;;;;;;6.15;1.80;;;;;;;;;;5049759;28;20028;-73
2022/06/07 14:28:40;;;;;;;4.40;1.70;;;;;;;;;;5049607;28;20135;-72
2022/06/07 14:31:12;;;;;;;6.15;1.63;;;;;;;;;;5049568;28;20025;-72
2022/06/07 14:33:37;;;;;;;5.30;1.88;;;;;;;;;;5049483;28;20059;-72
2022/06/07 14:36:03;;;;;;;5.43;1.73;;;;;;;;;;5049658;28;20052;-72
2022/06/07 14:38:28;;;;;;;7.60;1.95;;;;;;;;;;5049847;28;20512;-73
2022/06/07 14:40:54;;;;;;;5.53;1.80;;;;;;;;;;5049730;28;20040;-72
2022/06/07 14:43:21;;;;;;;3.70;1.50;;;;;;;;;;5049642;28;20104;-73
2022/06/07 14:46:03;;;;;;;8.18;1.85;;;;;;;;;;5049667;28;20025;-72
2022/06/07 14:48:41;;;;;;;6.63;2.00;;;;;;;;;;5049493;28;20033;-72
2022/06/07 14:51:27;;;;;;;6.68;1.70;;;;;;;;;;5049297;28;20072;-73
2022/06/07 14:53:57;;;;;;;6.72;1.55;;;;;;;;;;5049163;28;20047;-72
2022/06/07 14:56:25;;;;;;;5.97;1.80;;;;;;;;;;5049343;28;20033;-72
2022/06/07 14:58:50;;;;;;;4.47;1.60;;;;;;;;;;5049057;28;20065;-72
2022/06/07 15:01:38;;;;;;;4.55;1.42;;;;;;;;;;5049308;28;20029;-72
2022/06/07 15:04:07;;;;;;;6.22;1.80;;;;;;;;;;5048878;28;20255;-72
2022/06/07 15:06:36;;;;;;;4.43;1.70;;;;;;;;;;5049033;28;20455;-73
2022/06/07 15:09:03;;;;;;;5.78;1.80;;;;;;;;;;5048897;28;20049;-72
2022/06/07 15:11:34;;;;;;;5.00;1.55;;;;;;;;;;5049408;28;20029;-73
2022/06/07 15:14:01;;;;;;;4.80;1.50;;;;;;;;;;5049238;28;20104;-68
2022/06/07 15:16:29;;;;;;;4.53;1.70;;;;;;;;;;5049317;28;20028;-68
2022/06/07 15:18:56;;;;;;;6.53;1.70;;;;;;;;;;5049041;28;20562;-67
2022/06/07 15:21:23;;;;;;;5.40;1.60;;;;;;;;;;5049360;28;20020;-71
2022/06/07 15:23:50;;;;;;;5.72;1.67;;;;;;;;;;5048818;28;20455;-72
2022/06/07 15:26:18;;;;;;;6.22;1.90;;;;;;;;;;5049097;28;20028;-70
2022/06/07 15:28:44;;;;;;;6.70;1.60;;;;;;;;;;5048963;28;20036;-71
2022/06/07 15:31:13;;;;;;;4.75;1.73;;;;;;;;;;5047690;28;20037;-72
2022/06/07 15:33:40;;;;;;;8.15;1.67;;;;;;;;;;5052139;28;20029;-71
2022/06/07 15:36:06;;;;;;;6.82;1.67;;;;;;;;;;5052752;28;20036;-72